sensor_id;sensor_type;location;lat;lon;timestamp;temperature;humidity
2663;DHT22;49701;48.072;7.800;2023-07-16T00:02:03;20.50;99.90
2663;DHT22;49701;48.072;7.800;2023-07-16T00:04:29;20.40;99.90
2663;DHT22;49701;48.072;7.800;2023-07-16T00:06:55;20.20;99.90
2663;DHT22;49701;48.072;7.800;2023-07-16T00:09:21;20.10;99.90
2663;DHT22;49701;48.072;7.800;2023-07-16T00:11:46;20.00;99.90
2663;DHT22;49701;48.072;7.800;2023-07-16T00:14:12;19.90;99.90
2663;DHT22;49701;48.072;7.800;2023-07-16T00:16:38;19.70;99.90
2663;DHT22;49701;48.072;7.800;2023-07-16T00:19:03;19.60;99.90
2663;DHT22;49701;48.072;7.800;2023-07-16T00:21:30;19.50;99.90
2663;DHT22;49701;48.072;7.800;2023-07-16T00:23:56;19.40;99.90
2663;DHT22;49701;48.072;7.800;2023-07-16T00:26:22;19.30;99.90
2663;DHT22;49701;48.072;7.800;2023-07-16T00:28:47;19.20;99.90
2663;DHT22;49701;48.072;7.800;2023-07-16T00:31:14;19.10;99.90
2663;DHT22;49701;48.072;7.800;2023-07-16T00:33:40;19.10;99.90
2663;DHT22;49701;48.072;7.800;2023-07-16T00:36:05;19.00;99.90
2663;DHT22;49701;48.072;7.800;2023-07-16T00:38:31;19.00;99.90
2663;DHT22;49701;48.072;7.800;2023-07-16T00:40:57;18.90;99.90
2663;DHT22;49701;48.072;7.800;2023-07-16T00:43:22;18.90;99.90
2663;DHT22;49701;48.072;7.800;2023-07-16T00:45:49;18.80;99.90
2663;DHT22;49701;48.072;7.800;2023-07-16T00:48:15;18.80;99.90
2663;DHT22;49701;48.072;7.800;2023-07-16T00:50:41;18.80;99.90
2663;DHT22;49701;48.072;7.800;2023-07-16T00:53:08;18.80;99.90
2663;DHT22;49701;48.072;7.800;2023-07-16T00:55:35;18.70;99.90
2663;DHT22;49701;48.072;7.800;2023-07-16T00:58:06;18.70;99.90
2663;DHT22;49701;48.072;7.800;2023-07-16T01:00:33;18.60;99.90
2663;DHT22;49701;48.072;7.800;2023-07-16T01:03:01;18.60;99.90
2663;DHT22;49701;48.072;7.800;2023-07-16T01:05:34;18.50;99.90
2663;DHT22;49701;48.072;7.800;2023-07-16T01:08:04;18.50;99.90
2663;DHT22;49701;48.072;7.800;2023-07-16T01:10:33;18.40;99.90
2663;DHT22;49701;48.072;7.800;2023-07-16T01:13:00;18.30;99.90
2663;DHT22;49701;48.072;7.800;2023-07-16T01:15:26;18.30;99.90
2663;DHT22;49701;48.072;7.800;2023-07-16T01:17:51;18.40;99.90
2663;DHT22;49701;48.072;7.800;2023-07-16T01:20:17;18.40;99.90
2663;DHT22;49701;48.072;7.800;2023-07-16T01:31:34;18.40;99.90
2663;DHT22;49701;48.072;7.800;2023-07-16T01:34:01;18.30;99.90
2663;DHT22;49701;48.072;7.800;2023-07-16T01:36:29;18.30;99.90
2663;DHT22;49701;48.072;7.800;2023-07-16T01:38:55;18.20;99.90
2663;DHT22;49701;48.072;7.800;2023-07-16T01:41:21;18.20;99.90
2663;DHT22;49701;48.072;7.800;2023-07-16T01:43:47;18.20;99.90
2663;DHT22;49701;48.072;7.800;2023-07-16T01:46:12;18.20;99.90
2663;DHT22;49701;48.072;7.800;2023-07-16T01:48:38;18.10;99.90
2663;DHT22;49701;48.072;7.800;2023-07-16T01:51:04;18.10;99.90
2663;DHT22;49701;48.072;7.800;2023-07-16T01:53:30;18.10;99.90
2663;DHT22;49701;48.072;7.800;2023-07-16T01:55:57;18.10;99.90
2663;DHT22;49701;48.072;7.800;2023-07-16T01:58:22;18.00;99.90
2663;DHT22;49701;48.072;7.800;2023-07-16T02:00:50;18.10;99.90
2663;DHT22;49701;48.072;7.800;2023-07-16T02:03:16;18.10;99.90
2663;DHT22;49701;48.072;7.800;2023-07-16T02:05:41;18.00;99.90
2663;DHT22;49701;48.072;7.800;2023-07-16T02:08:07;18.00;99.90
2663;DHT22;49701;48.072;7.800;2023-07-16T02:10:33;18.00;99.90
2663;DHT22;49701;48.072;7.800;2023-07-16T02:12:58;17.90;99.90
2663;DHT22;49701;48.072;7.800;2023-07-16T02:15:24;17.80;99.90
2663;DHT22;49701;48.072;7.800;2023-07-16T02:17:50;17.80;99.90
2663;DHT22;49701;48.072;7.800;2023-07-16T02:20:16;17.80;99.90
2663;DHT22;49701;48.072;7.800;2023-07-16T02:22:41;17.70;99.90
2663;DHT22;49701;48.072;7.800;2023-07-16T02:25:07;17.70;99.90
2663;DHT22;49701;48.072;7.800;2023-07-16T02:27:33;17.70;99.90
2663;DHT22;49701;48.072;7.800;2023-07-16T02:29:59;17.70;99.90
2663;DHT22;49701;48.072;7.800;2023-07-16T02:32:24;17.70;99.90
2663;DHT22;49701;48.072;7.800;2023-07-16T02:34:50;17.70;99.90
2663;DHT22;49701;48.072;7.800;2023-07-16T02:37:16;17.80;99.90
2663;DHT22;49701;48.072;7.800;2023-07-16T02:39:44;17.70;99.90
2663;DHT22;49701;48.072;7.800;2023-07-16T02:42:10;17.70;99.90
2663;DHT22;49701;48.072;7.800;2023-07-16T02:44:36;17.60;99.90
2663;DHT22;49701;48.072;7.800;2023-07-16T02:47:09;17.70;99.90
2663;DHT22;49701;48.072;7.800;2023-07-16T02:49:34;17.70;99.90
2663;DHT22;49701;48.072;7.800;2023-07-16T02:52:00;17.70;99.90
2663;DHT22;49701;48.072;7.800;2023-07-16T02:54:26;17.60;99.90
2663;DHT22;49701;48.072;7.800;2023-07-16T02:56:52;17.60;99.90
2663;DHT22;49701;48.072;7.800;2023-07-16T02:59:18;17.60;99.90
2663;DHT22;49701;48.072;7.800;2023-07-16T03:01:43;17.60;99.90
2663;DHT22;49701;48.072;7.800;2023-07-16T03:04:09;17.60;99.90
2663;DHT22;49701;48.072;7.800;2023-07-16T03:06:35;17.60;99.90
2663;DHT22;49701;48.072;7.800;2023-07-16T03:09:00;17.60;99.90
2663;DHT22;49701;48.072;7.800;2023-07-16T03:11:26;17.60;99.90
2663;DHT22;49701;48.072;7.800;2023-07-16T03:13:52;17.70;99.90
2663;DHT22;49701;48.072;7.800;2023-07-16T03:16:18;17.70;99.90
2663;DHT22;49701;48.072;7.800;2023-07-16T03:18:44;17.70;99.90
2663;DHT22;49701;48.072;7.800;2023-07-16T03:21:11;17.70;99.90
2663;DHT22;49701;48.072;7.800;2023-07-16T03:23:37;17.70;99.90
2663;DHT22;49701;48.072;7.800;2023-07-16T03:26:03;17.70;99.90
2663;DHT22;49701;48.072;7.800;2023-07-16T03:28:29;17.70;99.90
2663;DHT22;49701;48.072;7.800;2023-07-16T03:30:54;17.70;99.90
2663;DHT22;49701;48.072;7.800;2023-07-16T03:33:20;17.70;99.90
2663;DHT22;49701;48.072;7.800;2023-07-16T03:35:47;17.80;99.90
2663;DHT22;49701;48.072;7.800;2023-07-16T03:38:13;17.70;99.90
2663;DHT22;49701;48.072;7.800;2023-07-16T03:40:39;17.60;99.90
2663;DHT22;49701;48.072;7.800;2023-07-16T03:43:06;17.60;99.90
2663;DHT22;49701;48.072;7.800;2023-07-16T03:45:32;17.70;99.90
2663;DHT22;49701;48.072;7.800;2023-07-16T03:47:59;17.60;99.90
2663;DHT22;49701;48.072;7.800;2023-07-16T03:50:25;17.60;99.90
2663;DHT22;49701;48.072;7.800;2023-07-16T03:52:50;17.50;99.90
2663;DHT22;49701;48.072;7.800;2023-07-16T03:55:16;17.50;99.90
2663;DHT22;49701;48.072;7.800;2023-07-16T03:57:42;17.50;99.90
2663;DHT22;49701;48.072;7.800;2023-07-16T04:00:08;17.50;99.90
2663;DHT22;49701;48.072;7.800;2023-07-16T04:02:44;17.50;99.90
2663;DHT22;49701;48.072;7.800;2023-07-16T04:05:15;17.40;99.90
2663;DHT22;49701;48.072;7.800;2023-07-16T04:07:41;17.50;99.90
2663;DHT22;49701;48.072;7.800;2023-07-16T04:10:07;17.40;99.90
2663;DHT22;49701;48.072;7.800;2023-07-16T04:12:33;17.40;99.90
2663;DHT22;49701;48.072;7.800;2023-07-16T04:14:59;17.40;99.90
2663;DHT22;49701;48.072;7.800;2023-07-16T04:17:25;17.40;99.90
2663;DHT22;49701;48.072;7.800;2023-07-16T04:19:51;17.40;99.90
2663;DHT22;49701;48.072;7.800;2023-07-16T04:22:17;17.50;99.90
2663;DHT22;49701;48.072;7.800;2023-07-16T04:24:43;17.50;99.90
2663;DHT22;49701;48.072;7.800;2023-07-16T04:27:08;17.40;99.90
2663;DHT22;49701;48.072;7.800;2023-07-16T04:29:34;17.50;99.90
2663;DHT22;49701;48.072;7.800;2023-07-16T04:32:00;17.60;99.90
2663;DHT22;49701;48.072;7.800;2023-07-16T04:34:25;17.60;99.90
2663;DHT22;49701;48.072;7.800;2023-07-16T04:36:51;17.70;99.90
2663;DHT22;49701;48.072;7.800;2023-07-16T04:39:16;17.70;99.90
2663;DHT22;49701;48.072;7.800;2023-07-16T04:41:42;17.70;99.90
2663;DHT22;49701;48.072;7.800;2023-07-16T04:44:08;17.60;99.90
2663;DHT22;49701;48.072;7.800;2023-07-16T04:46:33;17.60;99.90
2663;DHT22;49701;48.072;7.800;2023-07-16T04:49:00;17.70;99.90
2663;DHT22;49701;48.072;7.800;2023-07-16T04:51:26;17.70;99.90
2663;DHT22;49701;48.072;7.800;2023-07-16T04:53:52;17.70;99.90
2663;DHT22;49701;48.072;7.800;2023-07-16T04:56:18;17.70;99.90
2663;DHT22;49701;48.072;7.800;2023-07-16T04:58:43;17.70;99.90
2663;DHT22;49701;48.072;7.800;2023-07-16T05:01:09;17.70;99.90
2663;DHT22;49701;48.072;7.800;2023-07-16T05:03:35;17.70;99.90
2663;DHT22;49701;48.072;7.800;2023-07-16T05:06:02;17.70;99.90
2663;DHT22;49701;48.072;7.800;2023-07-16T05:08:27;17.80;99.90
2663;DHT22;49701;48.072;7.800;2023-07-16T05:10:53;17.80;99.90
2663;DHT22;49701;48.072;7.800;2023-07-16T05:13:19;17.80;99.90
2663;DHT22;49701;48.072;7.800;2023-07-16T05:15:44;17.90;99.90
2663;DHT22;49701;48.072;7.800;2023-07-16T05:18:10;17.90;99.90
2663;DHT22;49701;48.072;7.800;2023-07-16T05:20:36;18.00;99.90
2663;DHT22;49701;48.072;7.800;2023-07-16T05:23:02;18.00;99.90
2663;DHT22;49701;48.072;7.800;2023-07-16T05:25:28;18.10;99.90
2663;DHT22;49701;48.072;7.800;2023-07-16T05:27:53;18.10;99.90
2663;DHT22;49701;48.072;7.800;2023-07-16T05:30:19;18.10;99.90
2663;DHT22;49701;48.072;7.800;2023-07-16T05:32:45;18.20;99.90
2663;DHT22;49701;48.072;7.800;2023-07-16T05:35:10;18.30;99.90
2663;DHT22;49701;48.072;7.800;2023-07-16T05:37:36;18.30;99.90
2663;DHT22;49701;48.072;7.800;2023-07-16T05:40:02;18.30;99.90
2663;DHT22;49701;48.072;7.800;2023-07-16T05:42:28;18.40;99.90
2663;DHT22;49701;48.072;7.800;2023-07-16T05:44:54;18.40;99.90
2663;DHT22;49701;48.072;7.800;2023-07-16T05:47:20;18.50;99.90
2663;DHT22;49701;48.072;7.800;2023-07-16T05:49:46;18.50;99.90
2663;DHT22;49701;48.072;7.800;2023-07-16T05:52:12;18.60;99.90
2663;DHT22;49701;48.072;7.800;2023-07-16T05:54:37;18.60;99.90
2663;DHT22;49701;48.072;7.800;2023-07-16T05:57:03;18.70;99.90
2663;DHT22;49701;48.072;7.800;2023-07-16T05:59:29;18.80;99.90
2663;DHT22;49701;48.072;7.800;2023-07-16T06:01:55;19.00;99.90
2663;DHT22;49701;48.072;7.800;2023-07-16T06:04:23;19.10;99.90
2663;DHT22;49701;48.072;7.800;2023-07-16T06:06:49;19.30;99.90
2663;DHT22;49701;48.072;7.800;2023-07-16T06:09:14;19.50;99.90
2663;DHT22;49701;48.072;7.800;2023-07-16T06:11:40;19.60;99.90
2663;DHT22;49701;48.072;7.800;2023-07-16T06:14:06;19.60;99.90
2663;DHT22;49701;48.072;7.800;2023-07-16T06:16:31;19.50;99.90
2663;DHT22;49701;48.072;7.800;2023-07-16T06:18:57;19.50;99.90
2663;DHT22;49701;48.072;7.800;2023-07-16T06:21:23;19.60;99.90
2663;DHT22;49701;48.072;7.800;2023-07-16T06:23:48;19.60;99.90
2663;DHT22;49701;48.072;7.800;2023-07-16T06:26:14;19.70;99.90
2663;DHT22;49701;48.072;7.800;2023-07-16T06:28:40;19.70;99.90
2663;DHT22;49701;48.072;7.800;2023-07-16T06:31:05;19.70;99.90
2663;DHT22;49701;48.072;7.800;2023-07-16T06:33:31;19.60;99.90
2663;DHT22;49701;48.072;7.800;2023-07-16T06:35:57;19.60;99.90
2663;DHT22;49701;48.072;7.800;2023-07-16T06:38:22;19.70;99.90
2663;DHT22;49701;48.072;7.800;2023-07-16T06:40:49;19.70;99.90
2663;DHT22;49701;48.072;7.800;2023-07-16T06:43:15;19.90;99.90
2663;DHT22;49701;48.072;7.800;2023-07-16T06:45:41;20.00;99.90
2663;DHT22;49701;48.072;7.800;2023-07-16T06:48:07;20.10;99.90
2663;DHT22;49701;48.072;7.800;2023-07-16T06:50:33;20.20;99.90
2663;DHT22;49701;48.072;7.800;2023-07-16T06:52:59;20.40;99.90
2663;DHT22;49701;48.072;7.800;2023-07-16T06:55:24;20.50;99.90
2663;DHT22;49701;48.072;7.800;2023-07-16T06:57:50;20.50;99.90
2663;DHT22;49701;48.072;7.800;2023-07-16T07:00:16;20.60;99.90
2663;DHT22;49701;48.072;7.800;2023-07-16T07:02:42;20.70;99.90
2663;DHT22;49701;48.072;7.800;2023-07-16T07:05:07;20.80;99.90
2663;DHT22;49701;48.072;7.800;2023-07-16T07:07:33;20.90;99.90
2663;DHT22;49701;48.072;7.800;2023-07-16T07:09:59;21.00;99.90
2663;DHT22;49701;48.072;7.800;2023-07-16T07:12:24;20.90;99.90
2663;DHT22;49701;48.072;7.800;2023-07-16T07:14:50;20.80;99.90
2663;DHT22;49701;48.072;7.800;2023-07-16T07:17:16;20.70;99.90
2663;DHT22;49701;48.072;7.800;2023-07-16T07:19:42;20.80;99.90
2663;DHT22;49701;48.072;7.800;2023-07-16T07:22:08;20.90;99.90
2663;DHT22;49701;48.072;7.800;2023-07-16T07:24:34;20.90;99.90
2663;DHT22;49701;48.072;7.800;2023-07-16T07:27:00;20.90;99.90
2663;DHT22;49701;48.072;7.800;2023-07-16T07:29:25;21.00;99.90
2663;DHT22;49701;48.072;7.800;2023-07-16T07:31:52;21.00;99.90
2663;DHT22;49701;48.072;7.800;2023-07-16T07:34:18;21.20;99.90
2663;DHT22;49701;48.072;7.800;2023-07-16T07:36:44;21.40;99.90
2663;DHT22;49701;48.072;7.800;2023-07-16T07:39:10;21.50;99.90
2663;DHT22;49701;48.072;7.800;2023-07-16T07:41:36;21.60;99.90
2663;DHT22;49701;48.072;7.800;2023-07-16T07:44:02;21.70;99.90
2663;DHT22;49701;48.072;7.800;2023-07-16T07:46:27;21.70;99.90
2663;DHT22;49701;48.072;7.800;2023-07-16T07:48:53;21.80;99.90
2663;DHT22;49701;48.072;7.800;2023-07-16T07:51:20;21.80;99.90
2663;DHT22;49701;48.072;7.800;2023-07-16T07:53:46;21.70;99.90
2663;DHT22;49701;48.072;7.800;2023-07-16T07:56:11;21.70;99.90
2663;DHT22;49701;48.072;7.800;2023-07-16T07:58:37;21.80;99.90
2663;DHT22;49701;48.072;7.800;2023-07-16T08:01:05;21.90;99.90
2663;DHT22;49701;48.072;7.800;2023-07-16T08:03:31;21.90;99.90
2663;DHT22;49701;48.072;7.800;2023-07-16T08:05:57;22.20;99.90
2663;DHT22;49701;48.072;7.800;2023-07-16T08:08:22;22.60;99.90
2663;DHT22;49701;48.072;7.800;2023-07-16T08:10:48;22.60;99.90
2663;DHT22;49701;48.072;7.800;2023-07-16T08:13:14;22.60;99.90
2663;DHT22;49701;48.072;7.800;2023-07-16T08:15:39;22.60;99.90
2663;DHT22;49701;48.072;7.800;2023-07-16T08:18:05;22.70;99.90
2663;DHT22;49701;48.072;7.800;2023-07-16T08:20:31;22.80;99.90
2663;DHT22;49701;48.072;7.800;2023-07-16T08:22:56;23.00;99.90
2663;DHT22;49701;48.072;7.800;2023-07-16T08:25:22;23.00;99.90
2663;DHT22;49701;48.072;7.800;2023-07-16T08:27:48;23.20;99.90
2663;DHT22;49701;48.072;7.800;2023-07-16T08:30:14;23.30;99.90
2663;DHT22;49701;48.072;7.800;2023-07-16T08:32:40;23.30;99.90
2663;DHT22;49701;48.072;7.800;2023-07-16T08:35:06;23.10;99.90
2663;DHT22;49701;48.072;7.800;2023-07-16T08:37:31;22.90;99.90
2663;DHT22;49701;48.072;7.800;2023-07-16T08:39:57;22.70;99.90
2663;DHT22;49701;48.072;7.800;2023-07-16T08:42:23;22.60;99.90
2663;DHT22;49701;48.072;7.800;2023-07-16T08:44:49;22.50;99.90
2663;DHT22;49701;48.072;7.800;2023-07-16T08:47:18;22.60;99.90
2663;DHT22;49701;48.072;7.800;2023-07-16T08:49:54;22.70;99.90
2663;DHT22;49701;48.072;7.800;2023-07-16T08:52:23;22.80;99.90
2663;DHT22;49701;48.072;7.800;2023-07-16T08:54:49;22.70;99.90
2663;DHT22;49701;48.072;7.800;2023-07-16T08:57:15;22.60;99.90
2663;DHT22;49701;48.072;7.800;2023-07-16T08:59:40;22.50;99.90
2663;DHT22;49701;48.072;7.800;2023-07-16T09:02:07;22.50;99.90
2663;DHT22;49701;48.072;7.800;2023-07-16T09:04:33;22.70;99.90
2663;DHT22;49701;48.072;7.800;2023-07-16T09:06:58;22.90;99.90
2663;DHT22;49701;48.072;7.800;2023-07-16T09:09:24;23.20;99.90
2663;DHT22;49701;48.072;7.800;2023-07-16T09:11:50;23.40;99.90
2663;DHT22;49701;48.072;7.800;2023-07-16T09:14:17;23.40;99.90
2663;DHT22;49701;48.072;7.800;2023-07-16T09:16:50;23.50;99.90
2663;DHT22;49701;48.072;7.800;2023-07-16T09:19:17;24.00;99.90
2663;DHT22;49701;48.072;7.800;2023-07-16T09:21:47;24.20;99.90
2663;DHT22;49701;48.072;7.800;2023-07-16T09:24:13;24.30;99.90
2663;DHT22;49701;48.072;7.800;2023-07-16T09:26:50;24.40;99.90
2663;DHT22;49701;48.072;7.800;2023-07-16T09:29:17;24.50;99.90
2663;DHT22;49701;48.072;7.800;2023-07-16T09:34:26;24.50;99.90
2663;DHT22;49701;48.072;7.800;2023-07-16T09:36:52;24.80;99.90
2663;DHT22;49701;48.072;7.800;2023-07-16T09:39:18;25.10;99.90
2663;DHT22;49701;48.072;7.800;2023-07-16T09:41:50;25.40;99.90
2663;DHT22;49701;48.072;7.800;2023-07-16T09:44:16;25.40;99.90
2663;DHT22;49701;48.072;7.800;2023-07-16T09:46:43;25.10;99.90
2663;DHT22;49701;48.072;7.800;2023-07-16T09:49:09;25.00;99.90
2663;DHT22;49701;48.072;7.800;2023-07-16T09:51:36;25.00;99.90
2663;DHT22;49701;48.072;7.800;2023-07-16T09:54:03;24.90;99.90
2663;DHT22;49701;48.072;7.800;2023-07-16T09:56:38;25.00;99.90
2663;DHT22;49701;48.072;7.800;2023-07-16T09:59:13;25.20;99.90
2663;DHT22;49701;48.072;7.800;2023-07-16T10:01:40;25.00;99.90
2663;DHT22;49701;48.072;7.800;2023-07-16T10:04:16;25.00;99.90
2663;DHT22;49701;48.072;7.800;2023-07-16T10:06:57;25.00;99.90
2663;DHT22;49701;48.072;7.800;2023-07-16T10:09:37;25.00;99.90
2663;DHT22;49701;48.072;7.800;2023-07-16T10:12:17;25.30;99.90
2663;DHT22;49701;48.072;7.800;2023-07-16T10:14:54;25.60;99.90
2663;DHT22;49701;48.072;7.800;2023-07-16T10:17:26;25.30;99.90
2663;DHT22;49701;48.072;7.800;2023-07-16T10:20:05;25.20;99.90
2663;DHT22;49701;48.072;7.800;2023-07-16T10:22:45;25.00;99.90
2663;DHT22;49701;48.072;7.800;2023-07-16T10:27:47;25.20;99.90
2663;DHT22;49701;48.072;7.800;2023-07-16T10:30:13;25.40;99.90
2663;DHT22;49701;48.072;7.800;2023-07-16T10:32:39;25.50;99.90
2663;DHT22;49701;48.072;7.800;2023-07-16T10:35:06;25.80;99.90
2663;DHT22;49701;48.072;7.800;2023-07-16T10:37:32;25.90;99.90
2663;DHT22;49701;48.072;7.800;2023-07-16T10:39:59;26.00;99.90
2663;DHT22;49701;48.072;7.800;2023-07-16T10:42:27;25.80;99.90
2663;DHT22;49701;48.072;7.800;2023-07-16T10:45:03;25.80;99.90
2663;DHT22;49701;48.072;7.800;2023-07-16T10:47:34;25.90;99.90
2663;DHT22;49701;48.072;7.800;2023-07-16T10:50:02;26.00;99.90
2663;DHT22;49701;48.072;7.800;2023-07-16T10:52:28;26.30;99.90
2663;DHT22;49701;48.072;7.800;2023-07-16T10:54:54;26.30;99.60
2663;DHT22;49701;48.072;7.800;2023-07-16T10:57:21;26.40;99.00
2663;DHT22;49701;48.072;7.800;2023-07-16T10:59:48;26.40;99.40
2663;DHT22;49701;48.072;7.800;2023-07-16T11:02:16;26.20;99.10
2663;DHT22;49701;48.072;7.800;2023-07-16T11:04:43;26.20;99.90
2663;DHT22;49701;48.072;7.800;2023-07-16T11:07:11;26.00;99.90
2663;DHT22;49701;48.072;7.800;2023-07-16T11:09:45;25.90;99.90
2663;DHT22;49701;48.072;7.800;2023-07-16T11:12:14;26.10;99.80
2663;DHT22;49701;48.072;7.800;2023-07-16T11:14:45;26.30;99.80
2663;DHT22;49701;48.072;7.800;2023-07-16T11:17:11;26.40;99.00
2663;DHT22;49701;48.072;7.800;2023-07-16T11:19:38;26.50;98.70
2663;DHT22;49701;48.072;7.800;2023-07-16T11:22:05;26.80;98.20
2663;DHT22;49701;48.072;7.800;2023-07-16T11:27:04;26.70;98.10
2663;DHT22;49701;48.072;7.800;2023-07-16T11:29:35;26.60;98.20
2663;DHT22;49701;48.072;7.800;2023-07-16T11:32:02;26.80;98.00
2663;DHT22;49701;48.072;7.800;2023-07-16T11:34:27;26.90;97.40
2663;DHT22;49701;48.072;7.800;2023-07-16T11:36:53;26.90;96.90
2663;DHT22;49701;48.072;7.800;2023-07-16T11:39:19;27.00;97.30
2663;DHT22;49701;48.072;7.800;2023-07-16T11:41:56;27.20;97.10
2663;DHT22;49701;48.072;7.800;2023-07-16T11:44:21;27.50;96.90
2663;DHT22;49701;48.072;7.800;2023-07-16T11:46:47;27.40;96.90
2663;DHT22;49701;48.072;7.800;2023-07-16T11:49:13;27.50;96.90
2663;DHT22;49701;48.072;7.800;2023-07-16T11:51:39;27.60;96.40
2663;DHT22;49701;48.072;7.800;2023-07-16T11:54:05;27.50;95.90
2663;DHT22;49701;48.072;7.800;2023-07-16T11:56:30;27.50;95.90
2663;DHT22;49701;48.072;7.800;2023-07-16T11:58:56;27.30;95.70
2663;DHT22;49701;48.072;7.800;2023-07-16T12:01:22;27.30;95.70
2663;DHT22;49701;48.072;7.800;2023-07-16T12:03:47;27.80;96.00
2663;DHT22;49701;48.072;7.800;2023-07-16T12:06:13;28.20;95.80
2663;DHT22;49701;48.072;7.800;2023-07-16T12:08:38;28.20;94.40
2663;DHT22;49701;48.072;7.800;2023-07-16T12:11:04;27.90;95.10
2663;DHT22;49701;48.072;7.800;2023-07-16T12:13:30;27.50;96.00
2663;DHT22;49701;48.072;7.800;2023-07-16T12:15:55;27.20;95.40
2663;DHT22;49701;48.072;7.800;2023-07-16T12:18:21;26.80;96.20
2663;DHT22;49701;48.072;7.800;2023-07-16T12:20:47;26.70;96.30
2663;DHT22;49701;48.072;7.800;2023-07-16T12:23:13;26.60;96.40
2663;DHT22;49701;48.072;7.800;2023-07-16T12:25:38;26.50;96.70
2663;DHT22;49701;48.072;7.800;2023-07-16T12:28:04;26.50;97.30
2663;DHT22;49701;48.072;7.800;2023-07-16T12:30:30;26.50;96.50
2663;DHT22;49701;48.072;7.800;2023-07-16T12:32:56;26.60;97.20
2663;DHT22;49701;48.072;7.800;2023-07-16T12:35:21;27.00;96.90
2663;DHT22;49701;48.072;7.800;2023-07-16T12:37:47;27.40;96.20
2663;DHT22;49701;48.072;7.800;2023-07-16T12:40:13;27.80;95.10
2663;DHT22;49701;48.072;7.800;2023-07-16T12:42:39;28.10;94.20
2663;DHT22;49701;48.072;7.800;2023-07-16T12:45:05;28.20;94.80
2663;DHT22;49701;48.072;7.800;2023-07-16T12:47:31;28.50;93.90
2663;DHT22;49701;48.072;7.800;2023-07-16T12:49:57;28.70;93.10
2663;DHT22;49701;48.072;7.800;2023-07-16T12:52:23;28.70;92.60
2663;DHT22;49701;48.072;7.800;2023-07-16T12:54:48;28.60;93.20
2663;DHT22;49701;48.072;7.800;2023-07-16T12:57:16;28.70;93.60
2663;DHT22;49701;48.072;7.800;2023-07-16T13:02:53;29.40;92.80
2663;DHT22;49701;48.072;7.800;2023-07-16T13:05:19;29.70;93.00
2663;DHT22;49701;48.072;7.800;2023-07-16T13:07:45;29.70;92.50
2663;DHT22;49701;48.072;7.800;2023-07-16T13:10:11;29.50;93.10
2663;DHT22;49701;48.072;7.800;2023-07-16T13:12:37;29.20;93.70
2663;DHT22;49701;48.072;7.800;2023-07-16T13:15:02;28.90;92.90
2663;DHT22;49701;48.072;7.800;2023-07-16T13:17:28;28.80;91.80
2663;DHT22;49701;48.072;7.800;2023-07-16T13:19:54;28.60;92.00
2663;DHT22;49701;48.072;7.800;2023-07-16T13:22:19;28.70;92.30
2663;DHT22;49701;48.072;7.800;2023-07-16T13:24:45;28.60;93.50
2663;DHT22;49701;48.072;7.800;2023-07-16T13:27:22;28.40;93.60
2663;DHT22;49701;48.072;7.800;2023-07-16T13:29:48;28.50;92.90
2663;DHT22;49701;48.072;7.800;2023-07-16T13:32:14;28.40;92.70
2663;DHT22;49701;48.072;7.800;2023-07-16T13:34:40;28.20;93.20
2663;DHT22;49701;48.072;7.800;2023-07-16T13:37:06;28.00;93.70
2663;DHT22;49701;48.072;7.800;2023-07-16T13:39:31;28.30;93.80
2663;DHT22;49701;48.072;7.800;2023-07-16T13:41:57;28.60;92.00
2663;DHT22;49701;48.072;7.800;2023-07-16T13:44:23;28.70;91.60
2663;DHT22;49701;48.072;7.800;2023-07-16T13:46:48;28.40;91.30
2663;DHT22;49701;48.072;7.800;2023-07-16T13:49:14;28.40;91.40
2663;DHT22;49701;48.072;7.800;2023-07-16T13:51:40;28.70;90.70
2663;DHT22;49701;48.072;7.800;2023-07-16T13:54:06;28.90;91.50
2663;DHT22;49701;48.072;7.800;2023-07-16T13:56:31;28.70;90.50
2663;DHT22;49701;48.072;7.800;2023-07-16T13:58:57;28.40;90.40
2663;DHT22;49701;48.072;7.800;2023-07-16T14:01:24;28.20;91.10
2663;DHT22;49701;48.072;7.800;2023-07-16T14:03:49;28.20;91.10
2663;DHT22;49701;48.072;7.800;2023-07-16T14:06:15;28.40;90.50
2663;DHT22;49701;48.072;7.800;2023-07-16T14:08:41;28.20;90.70
2663;DHT22;49701;48.072;7.800;2023-07-16T14:11:07;28.20;90.50
2663;DHT22;49701;48.072;7.800;2023-07-16T14:13:32;28.30;91.00
2663;DHT22;49701;48.072;7.800;2023-07-16T14:15:58;28.20;90.90
2663;DHT22;49701;48.072;7.800;2023-07-16T14:18:24;28.20;90.60
2663;DHT22;49701;48.072;7.800;2023-07-16T14:20:49;28.10;90.50
2663;DHT22;49701;48.072;7.800;2023-07-16T14:23:15;28.10;90.50
2663;DHT22;49701;48.072;7.800;2023-07-16T14:25:41;28.30;90.20
2663;DHT22;49701;48.072;7.800;2023-07-16T14:28:06;28.40;90.20
2663;DHT22;49701;48.072;7.800;2023-07-16T14:30:32;28.70;90.10
2663;DHT22;49701;48.072;7.800;2023-07-16T14:32:58;28.90;90.20
2663;DHT22;49701;48.072;7.800;2023-07-16T14:35:25;28.90;89.70
2663;DHT22;49701;48.072;7.800;2023-07-16T14:37:50;28.90;90.00
2663;DHT22;49701;48.072;7.800;2023-07-16T14:40:16;29.00;89.60
2663;DHT22;49701;48.072;7.800;2023-07-16T14:42:43;28.90;89.00
2663;DHT22;49701;48.072;7.800;2023-07-16T14:45:09;28.80;90.30
2663;DHT22;49701;48.072;7.800;2023-07-16T14:47:35;28.80;90.00
2663;DHT22;49701;48.072;7.800;2023-07-16T14:50:00;28.70;89.00
2663;DHT22;49701;48.072;7.800;2023-07-16T14:52:26;28.60;90.20
2663;DHT22;49701;48.072;7.800;2023-07-16T14:54:52;28.50;90.50
2663;DHT22;49701;48.072;7.800;2023-07-16T14:57:18;28.50;90.60
2663;DHT22;49701;48.072;7.800;2023-07-16T14:59:43;28.30;90.20
2663;DHT22;49701;48.072;7.800;2023-07-16T15:02:09;28.20;90.40
2663;DHT22;49701;48.072;7.800;2023-07-16T15:04:35;28.20;90.70
2663;DHT22;49701;48.072;7.800;2023-07-16T15:07:01;28.30;90.60
2663;DHT22;49701;48.072;7.800;2023-07-16T15:09:26;28.40;90.60
2663;DHT22;49701;48.072;7.800;2023-07-16T15:11:52;28.50;90.60
2663;DHT22;49701;48.072;7.800;2023-07-16T15:14:18;28.50;90.30
2663;DHT22;49701;48.072;7.800;2023-07-16T15:16:44;28.30;91.00
2663;DHT22;49701;48.072;7.800;2023-07-16T15:19:09;28.20;90.20
2663;DHT22;49701;48.072;7.800;2023-07-16T15:21:37;28.00;90.60
2663;DHT22;49701;48.072;7.800;2023-07-16T15:24:07;28.00;91.00
2663;DHT22;49701;48.072;7.800;2023-07-16T15:26:32;27.90;91.60
2663;DHT22;49701;48.072;7.800;2023-07-16T15:28:58;27.90;91.70
2663;DHT22;49701;48.072;7.800;2023-07-16T15:31:24;27.80;92.00
2663;DHT22;49701;48.072;7.800;2023-07-16T15:33:54;28.00;92.00
2663;DHT22;49701;48.072;7.800;2023-07-16T15:36:21;28.10;91.70
2663;DHT22;49701;48.072;7.800;2023-07-16T15:38:46;28.00;91.30
2663;DHT22;49701;48.072;7.800;2023-07-16T15:41:15;28.00;91.30
2663;DHT22;49701;48.072;7.800;2023-07-16T15:43:42;28.00;91.40
2663;DHT22;49701;48.072;7.800;2023-07-16T15:46:09;28.30;91.70
2663;DHT22;49701;48.072;7.800;2023-07-16T15:48:35;28.50;90.90
2663;DHT22;49701;48.072;7.800;2023-07-16T15:51:01;28.50;90.50
2663;DHT22;49701;48.072;7.800;2023-07-16T15:53:27;28.30;90.50
2663;DHT22;49701;48.072;7.800;2023-07-16T15:55:53;28.40;90.20
2663;DHT22;49701;48.072;7.800;2023-07-16T15:58:19;28.50;89.90
2663;DHT22;49701;48.072;7.800;2023-07-16T16:00:45;28.30;90.60